sensor_id;sensor_type;location;lat;lon;timestamp;P1;durP1;ratioP1;P2;durP2;ratioP2
56927;SDS011;60850;52.502;13.426;2023-08-31T00:02:14;4.13;;;3.55;;
56927;SDS011;60850;52.502;13.426;2023-08-31T00:04:40;4.78;;;3.47;;
56927;SDS011;60850;52.502;13.426;2023-08-31T00:07:07;6.82;;;3.95;;
56927;SDS011;60850;52.502;13.426;2023-08-31T00:09:33;4.70;;;3.75;;
56927;SDS011;60850;52.502;13.426;2023-08-31T00:12:01;5.38;;;3.40;;
56927;SDS011;60850;52.502;13.426;2023-08-31T00:14:29;5.70;;;3.45;;
56927;SDS011;60850;52.502;13.426;2023-08-31T00:16:58;4.88;;;3.85;;
56927;SDS011;60850;52.502;13.426;2023-08-31T00:19:24;5.20;;;3.15;;
56927;SDS011;60850;52.502;13.426;2023-08-31T00:21:51;4.03;;;3.30;;
56927;SDS011;60850;52.502;13.426;2023-08-31T00:24:18;4.13;;;3.20;;
56927;SDS011;60850;52.502;13.426;2023-08-31T00:26:47;5.95;;;3.70;;
56927;SDS011;60850;52.502;13.426;2023-08-31T00:29:16;4.70;;;3.50;;
56927;SDS011;60850;52.502;13.426;2023-08-31T00:31:44;4.70;;;3.22;;
56927;SDS011;60850;52.502;13.426;2023-08-31T00:34:13;6.00;;;3.90;;
56927;SDS011;60850;52.502;13.426;2023-08-31T00:36:43;3.83;;;3.33;;
56927;SDS011;60850;52.502;13.426;2023-08-31T00:39:09;7.78;;;3.53;;
56927;SDS011;60850;52.502;13.426;2023-08-31T00:41:37;5.18;;;3.55;;
56927;SDS011;60850;52.502;13.426;2023-08-31T00:44:04;5.22;;;3.65;;
56927;SDS011;60850;52.502;13.426;2023-08-31T00:46:32;4.15;;;3.20;;
56927;SDS011;60850;52.502;13.426;2023-08-31T00:49:02;4.20;;;3.47;;
56927;SDS011;60850;52.502;13.426;2023-08-31T00:51:30;4.88;;;3.60;;
56927;SDS011;60850;52.502;13.426;2023-08-31T00:53:57;4.93;;;3.35;;
56927;SDS011;60850;52.502;13.426;2023-08-31T00:56:24;5.57;;;3.65;;
56927;SDS011;60850;52.502;13.426;2023-08-31T00:58:51;3.67;;;3.15;;
56927;SDS011;60850;52.502;13.426;2023-08-31T01:01:22;3.70;;;3.20;;
56927;SDS011;60850;52.502;13.426;2023-08-31T01:06:31;5.38;;;3.22;;
56927;SDS011;60850;52.502;13.426;2023-08-31T01:09:08;4.43;;;3.35;;
56927;SDS011;60850;52.502;13.426;2023-08-31T01:11:45;4.65;;;3.60;;
56927;SDS011;60850;52.502;13.426;2023-08-31T01:14:23;3.97;;;3.45;;
56927;SDS011;60850;52.502;13.426;2023-08-31T01:16:54;4.72;;;3.50;;
56927;SDS011;60850;52.502;13.426;2023-08-31T01:19:30;6.00;;;3.10;;
56927;SDS011;60850;52.502;13.426;2023-08-31T01:22:09;4.50;;;3.03;;
56927;SDS011;60850;52.502;13.426;2023-08-31T01:24:41;3.65;;;3.22;;
56927;SDS011;60850;52.502;13.426;2023-08-31T01:27:08;4.78;;;3.75;;
56927;SDS011;60850;52.502;13.426;2023-08-31T01:29:35;5.10;;;3.60;;
56927;SDS011;60850;52.502;13.426;2023-08-31T01:32:05;4.40;;;3.65;;
56927;SDS011;60850;52.502;13.426;2023-08-31T01:34:32;7.60;;;4.20;;
56927;SDS011;60850;52.502;13.426;2023-08-31T01:37:00;5.45;;;3.58;;
56927;SDS011;60850;52.502;13.426;2023-08-31T01:39:34;4.30;;;3.03;;
56927;SDS011;60850;52.502;13.426;2023-08-31T01:42:08;3.75;;;3.25;;
56927;SDS011;60850;52.502;13.426;2023-08-31T01:44:38;4.80;;;3.25;;
56927;SDS011;60850;52.502;13.426;2023-08-31T01:47:06;4.78;;;3.40;;
56927;SDS011;60850;52.502;13.426;2023-08-31T01:49:36;5.43;;;3.10;;
56927;SDS011;60850;52.502;13.426;2023-08-31T01:52:04;5.43;;;3.08;;
56927;SDS011;60850;52.502;13.426;2023-08-31T01:54:32;4.25;;;2.83;;
56927;SDS011;60850;52.502;13.426;2023-08-31T01:56:59;3.53;;;3.05;;
56927;SDS011;60850;52.502;13.426;2023-08-31T01:59:29;3.50;;;3.13;;
56927;SDS011;60850;52.502;13.426;2023-08-31T02:01:56;3.83;;;2.70;;
56927;SDS011;60850;52.502;13.426;2023-08-31T02:04:23;3.20;;;2.60;;
56927;SDS011;60850;52.502;13.426;2023-08-31T02:06:50;3.03;;;2.60;;
56927;SDS011;60850;52.502;13.426;2023-08-31T02:09:17;2.40;;;2.10;;
56927;SDS011;60850;52.502;13.426;2023-08-31T02:11:44;3.03;;;2.72;;
56927;SDS011;60850;52.502;13.426;2023-08-31T02:14:10;3.03;;;2.60;;
56927;SDS011;60850;52.502;13.426;2023-08-31T02:16:39;3.15;;;2.22;;
56927;SDS011;60850;52.502;13.426;2023-08-31T02:19:06;2.85;;;2.40;;
56927;SDS011;60850;52.502;13.426;2023-08-31T02:21:33;3.00;;;2.15;;
56927;SDS011;60850;52.502;13.426;2023-08-31T02:23:59;2.70;;;2.30;;
56927;SDS011;60850;52.502;13.426;2023-08-31T02:26:26;2.47;;;2.20;;
56927;SDS011;60850;52.502;13.426;2023-08-31T02:28:53;2.83;;;2.20;;
56927;SDS011;60850;52.502;13.426;2023-08-31T02:31:20;3.65;;;2.10;;
56927;SDS011;60850;52.502;13.426;2023-08-31T02:33:48;2.35;;;1.80;;
56927;SDS011;60850;52.502;13.426;2023-08-31T02:36:15;2.03;;;1.70;;
56927;SDS011;60850;52.502;13.426;2023-08-31T02:38:42;3.92;;;1.95;;
56927;SDS011;60850;52.502;13.426;2023-08-31T02:41:08;2.70;;;2.00;;
56927;SDS011;60850;52.502;13.426;2023-08-31T02:43:35;3.03;;;1.80;;
56927;SDS011;60850;52.502;13.426;2023-08-31T02:46:02;2.28;;;1.73;;
56927;SDS011;60850;52.502;13.426;2023-08-31T02:48:29;2.92;;;2.05;;
56927;SDS011;60850;52.502;13.426;2023-08-31T02:50:58;2.53;;;1.75;;
56927;SDS011;60850;52.502;13.426;2023-08-31T02:53:26;3.35;;;2.10;;
56927;SDS011;60850;52.502;13.426;2023-08-31T02:55:53;3.05;;;1.90;;
56927;SDS011;60850;52.502;13.426;2023-08-31T02:58:20;2.42;;;2.08;;
56927;SDS011;60850;52.502;13.426;2023-08-31T03:00:47;2.97;;;2.00;;
56927;SDS011;60850;52.502;13.426;2023-08-31T03:03:14;3.58;;;1.88;;
56927;SDS011;60850;52.502;13.426;2023-08-31T03:05:41;2.95;;;2.00;;
56927;SDS011;60850;52.502;13.426;2023-08-31T03:08:09;3.20;;;2.25;;
56927;SDS011;60850;52.502;13.426;2023-08-31T03:10:36;2.55;;;2.10;;
56927;SDS011;60850;52.502;13.426;2023-08-31T03:13:04;3.10;;;1.90;;
56927;SDS011;60850;52.502;13.426;2023-08-31T03:15:32;2.80;;;2.00;;
56927;SDS011;60850;52.502;13.426;2023-08-31T03:17:59;3.00;;;2.40;;
56927;SDS011;60850;52.502;13.426;2023-08-31T03:20:26;2.65;;;1.98;;
56927;SDS011;60850;52.502;13.426;2023-08-31T03:22:52;3.80;;;2.05;;
56927;SDS011;60850;52.502;13.426;2023-08-31T03:25:21;3.40;;;2.15;;
56927;SDS011;60850;52.502;13.426;2023-08-31T03:27:47;2.95;;;1.98;;
56927;SDS011;60850;52.502;13.426;2023-08-31T03:30:14;2.42;;;1.90;;
56927;SDS011;60850;52.502;13.426;2023-08-31T03:32:41;3.35;;;2.25;;
56927;SDS011;60850;52.502;13.426;2023-08-31T03:35:09;4.03;;;2.00;;
56927;SDS011;60850;52.502;13.426;2023-08-31T03:37:35;3.00;;;1.95;;
56927;SDS011;60850;52.502;13.426;2023-08-31T03:40:03;2.63;;;1.90;;
56927;SDS011;60850;52.502;13.426;2023-08-31T03:42:33;2.25;;;1.52;;
56927;SDS011;60850;52.502;13.426;2023-08-31T03:45:00;3.45;;;2.00;;
56927;SDS011;60850;52.502;13.426;2023-08-31T03:47:27;2.97;;;1.85;;
56927;SDS011;60850;52.502;13.426;2023-08-31T03:49:54;4.13;;;2.10;;
56927;SDS011;60850;52.502;13.426;2023-08-31T03:52:21;3.38;;;2.15;;
56927;SDS011;60850;52.502;13.426;2023-08-31T03:54:51;2.67;;;2.13;;
56927;SDS011;60850;52.502;13.426;2023-08-31T03:57:18;3.42;;;2.22;;
56927;SDS011;60850;52.502;13.426;2023-08-31T03:59:47;3.05;;;2.00;;
56927;SDS011;60850;52.502;13.426;2023-08-31T04:02:14;4.70;;;2.45;;
56927;SDS011;60850;52.502;13.426;2023-08-31T04:04:41;4.35;;;2.90;;
56927;SDS011;60850;52.502;13.426;2023-08-31T04:07:07;4.85;;;2.92;;
56927;SDS011;60850;52.502;13.426;2023-08-31T04:09:34;4.75;;;3.10;;
56927;SDS011;60850;52.502;13.426;2023-08-31T04:12:01;6.82;;;3.55;;
56927;SDS011;60850;52.502;13.426;2023-08-31T04:14:28;4.85;;;3.35;;
56927;SDS011;60850;52.502;13.426;2023-08-31T04:16:56;4.85;;;3.53;;
56927;SDS011;60850;52.502;13.426;2023-08-31T04:19:23;5.30;;;3.35;;
56927;SDS011;60850;52.502;13.426;2023-08-31T04:21:50;5.93;;;3.97;;
56927;SDS011;60850;52.502;13.426;2023-08-31T04:24:17;4.57;;;3.30;;
56927;SDS011;60850;52.502;13.426;2023-08-31T04:26:44;5.70;;;3.75;;
56927;SDS011;60850;52.502;13.426;2023-08-31T04:29:13;5.15;;;3.90;;
56927;SDS011;60850;52.502;13.426;2023-08-31T04:31:40;4.85;;;4.00;;
56927;SDS011;60850;52.502;13.426;2023-08-31T04:34:08;5.32;;;4.10;;
56927;SDS011;60850;52.502;13.426;2023-08-31T04:36:35;8.13;;;4.82;;
56927;SDS011;60850;52.502;13.426;2023-08-31T04:39:02;7.88;;;4.82;;
56927;SDS011;60850;52.502;13.426;2023-08-31T04:41:30;6.80;;;4.18;;
56927;SDS011;60850;52.502;13.426;2023-08-31T04:43:57;7.13;;;4.60;;
56927;SDS011;60850;52.502;13.426;2023-08-31T04:46:23;17.08;;;9.35;;
56927;SDS011;60850;52.502;13.426;2023-08-31T04:48:51;8.50;;;5.43;;
56927;SDS011;60850;52.502;13.426;2023-08-31T04:51:29;8.10;;;4.90;;
56927;SDS011;60850;52.502;13.426;2023-08-31T04:53:57;8.27;;;4.70;;
56927;SDS011;60850;52.502;13.426;2023-08-31T04:56:24;8.20;;;5.40;;
56927;SDS011;60850;52.502;13.426;2023-08-31T04:58:51;9.07;;;4.93;;
56927;SDS011;60850;52.502;13.426;2023-08-31T05:01:18;8.75;;;4.90;;
56927;SDS011;60850;52.502;13.426;2023-08-31T05:03:45;9.05;;;5.28;;
56927;SDS011;60850;52.502;13.426;2023-08-31T05:06:12;8.85;;;5.18;;
56927;SDS011;60850;52.502;13.426;2023-08-31T05:08:40;8.77;;;5.50;;
56927;SDS011;60850;52.502;13.426;2023-08-31T05:11:07;7.13;;;5.32;;
56927;SDS011;60850;52.502;13.426;2023-08-31T05:13:34;6.65;;;5.00;;
56927;SDS011;60850;52.502;13.426;2023-08-31T05:16:02;7.80;;;5.15;;
56927;SDS011;60850;52.502;13.426;2023-08-31T05:18:30;7.05;;;4.68;;
56927;SDS011;60850;52.502;13.426;2023-08-31T05:20:56;10.23;;;6.53;;
56927;SDS011;60850;52.502;13.426;2023-08-31T05:23:24;7.72;;;5.15;;
56927;SDS011;60850;52.502;13.426;2023-08-31T05:25:52;7.57;;;4.72;;
56927;SDS011;60850;52.502;13.426;2023-08-31T05:28:22;9.00;;;5.22;;
56927;SDS011;60850;52.502;13.426;2023-08-31T05:30:49;8.35;;;5.15;;
56927;SDS011;60850;52.502;13.426;2023-08-31T05:33:16;10.40;;;5.82;;
56927;SDS011;60850;52.502;13.426;2023-08-31T05:35:43;9.13;;;4.97;;
56927;SDS011;60850;52.502;13.426;2023-08-31T05:38:10;11.40;;;6.05;;
56927;SDS011;60850;52.502;13.426;2023-08-31T05:40:37;11.35;;;5.57;;
56927;SDS011;60850;52.502;13.426;2023-08-31T05:43:06;7.97;;;5.63;;
56927;SDS011;60850;52.502;13.426;2023-08-31T05:45:32;7.80;;;6.43;;
56927;SDS011;60850;52.502;13.426;2023-08-31T05:47:59;8.55;;;5.70;;
56927;SDS011;60850;52.502;13.426;2023-08-31T05:50:26;8.13;;;6.13;;
56927;SDS011;60850;52.502;13.426;2023-08-31T05:52:54;12.23;;;6.03;;
56927;SDS011;60850;52.502;13.426;2023-08-31T05:55:21;9.18;;;6.32;;
56927;SDS011;60850;52.502;13.426;2023-08-31T05:57:48;8.88;;;5.88;;
56927;SDS011;60850;52.502;13.426;2023-08-31T06:00:17;9.73;;;6.00;;
56927;SDS011;60850;52.502;13.426;2023-08-31T06:02:45;8.10;;;5.53;;
56927;SDS011;60850;52.502;13.426;2023-08-31T06:05:12;7.97;;;5.35;;
56927;SDS011;60850;52.502;13.426;2023-08-31T06:07:41;10.80;;;6.57;;
56927;SDS011;60850;52.502;13.426;2023-08-31T06:10:08;9.82;;;6.55;;
56927;SDS011;60850;52.502;13.426;2023-08-31T06:12:36;7.57;;;5.82;;
56927;SDS011;60850;52.502;13.426;2023-08-31T06:15:03;9.68;;;6.22;;
56927;SDS011;60850;52.502;13.426;2023-08-31T06:17:32;8.20;;;5.50;;
56927;SDS011;60850;52.502;13.426;2023-08-31T06:20:00;11.77;;;6.47;;
56927;SDS011;60850;52.502;13.426;2023-08-31T06:22:27;6.90;;;6.10;;
56927;SDS011;60850;52.502;13.426;2023-08-31T06:24:54;9.23;;;5.30;;
56927;SDS011;60850;52.502;13.426;2023-08-31T06:27:21;8.63;;;5.80;;
56927;SDS011;60850;52.502;13.426;2023-08-31T06:29:48;9.50;;;5.90;;
56927;SDS011;60850;52.502;13.426;2023-08-31T06:32:15;10.20;;;5.95;;
56927;SDS011;60850;52.502;13.426;2023-08-31T06:34:43;8.05;;;5.47;;
56927;SDS011;60850;52.502;13.426;2023-08-31T06:37:10;7.97;;;5.38;;
56927;SDS011;60850;52.502;13.426;2023-08-31T06:39:37;8.98;;;5.30;;
56927;SDS011;60850;52.502;13.426;2023-08-31T06:42:04;9.38;;;5.40;;
56927;SDS011;60850;52.502;13.426;2023-08-31T06:44:31;11.05;;;6.22;;
56927;SDS011;60850;52.502;13.426;2023-08-31T06:46:58;10.98;;;5.60;;
56927;SDS011;60850;52.502;13.426;2023-08-31T06:49:25;9.50;;;5.57;;
56927;SDS011;60850;52.502;13.426;2023-08-31T06:51:54;10.05;;;4.85;;
56927;SDS011;60850;52.502;13.426;2023-08-31T06:54:21;9.13;;;7.05;;
56927;SDS011;60850;52.502;13.426;2023-08-31T06:56:48;9.68;;;6.10;;
56927;SDS011;60850;52.502;13.426;2023-08-31T06:59:14;9.88;;;6.35;;
56927;SDS011;60850;52.502;13.426;2023-08-31T07:01:41;8.25;;;5.72;;
56927;SDS011;60850;52.502;13.426;2023-08-31T07:04:08;10.52;;;6.13;;
56927;SDS011;60850;52.502;13.426;2023-08-31T07:06:35;10.35;;;5.82;;
56927;SDS011;60850;52.502;13.426;2023-08-31T07:09:03;7.45;;;5.35;;
56927;SDS011;60850;52.502;13.426;2023-08-31T07:11:33;9.13;;;5.50;;
56927;SDS011;60850;52.502;13.426;2023-08-31T07:14:00;7.45;;;5.43;;
56927;SDS011;60850;52.502;13.426;2023-08-31T07:16:27;7.60;;;4.35;;
56927;SDS011;60850;52.502;13.426;2023-08-31T07:18:54;7.70;;;4.90;;
56927;SDS011;60850;52.502;13.426;2023-08-31T07:21:21;8.23;;;5.07;;
56927;SDS011;60850;52.502;13.426;2023-08-31T07:23:48;9.07;;;4.90;;
56927;SDS011;60850;52.502;13.426;2023-08-31T07:26:16;8.95;;;5.07;;
56927;SDS011;60850;52.502;13.426;2023-08-31T07:28:43;7.57;;;5.05;;
56927;SDS011;60850;52.502;13.426;2023-08-31T07:31:10;4.97;;;4.15;;
56927;SDS011;60850;52.502;13.426;2023-08-31T07:33:38;9.48;;;4.35;;
56927;SDS011;60850;52.502;13.426;2023-08-31T07:36:05;8.80;;;5.10;;
56927;SDS011;60850;52.502;13.426;2023-08-31T07:38:32;8.98;;;5.32;;
56927;SDS011;60850;52.502;13.426;2023-08-31T07:40:59;7.05;;;5.05;;
56927;SDS011;60850;52.502;13.426;2023-08-31T07:43:28;7.70;;;5.18;;
56927;SDS011;60850;52.502;13.426;2023-08-31T07:45:55;6.38;;;4.28;;
56927;SDS011;60850;52.502;13.426;2023-08-31T07:48:22;6.90;;;5.10;;
56927;SDS011;60850;52.502;13.426;2023-08-31T07:50:49;7.18;;;4.10;;
56927;SDS011;60850;52.502;13.426;2023-08-31T07:53:16;5.55;;;4.15;;
56927;SDS011;60850;52.502;13.426;2023-08-31T07:55:50;7.35;;;3.70;;
56927;SDS011;60850;52.502;13.426;2023-08-31T07:58:18;8.20;;;4.68;;
56927;SDS011;60850;52.502;13.426;2023-08-31T08:00:46;6.53;;;4.38;;
56927;SDS011;60850;52.502;13.426;2023-08-31T08:03:13;7.78;;;4.50;;
56927;SDS011;60850;52.502;13.426;2023-08-31T08:05:40;7.70;;;3.55;;
56927;SDS011;60850;52.502;13.426;2023-08-31T08:08:07;7.65;;;3.70;;
56927;SDS011;60850;52.502;13.426;2023-08-31T08:10:34;7.00;;;3.45;;
56927;SDS011;60850;52.502;13.426;2023-08-31T08:13:01;5.15;;;3.90;;
56927;SDS011;60850;52.502;13.426;2023-08-31T08:15:28;5.35;;;2.78;;
56927;SDS011;60850;52.502;13.426;2023-08-31T08:17:57;2.92;;;2.38;;
56927;SDS011;60850;52.502;13.426;2023-08-31T08:20:24;5.50;;;2.78;;
56927;SDS011;60850;52.502;13.426;2023-08-31T08:22:51;4.88;;;2.58;;
56927;SDS011;60850;52.502;13.426;2023-08-31T08:25:18;4.40;;;2.58;;
56927;SDS011;60850;52.502;13.426;2023-08-31T08:27:45;3.30;;;2.20;;
56927;SDS011;60850;52.502;13.426;2023-08-31T08:30:13;4.10;;;1.90;;
56927;SDS011;60850;52.502;13.426;2023-08-31T08:32:40;3.83;;;2.08;;
56927;SDS011;60850;52.502;13.426;2023-08-31T08:35:09;3.03;;;1.90;;
56927;SDS011;60850;52.502;13.426;2023-08-31T08:37:36;4.07;;;2.00;;
56927;SDS011;60850;52.502;13.426;2023-08-31T08:40:03;4.07;;;1.95;;
56927;SDS011;60850;52.502;13.426;2023-08-31T08:42:30;4.72;;;2.00;;
56927;SDS011;60850;52.502;13.426;2023-08-31T08:44:59;4.50;;;1.85;;
56927;SDS011;60850;52.502;13.426;2023-08-31T08:47:28;3.47;;;1.90;;
56927;SDS011;60850;52.502;13.426;2023-08-31T08:49:56;4.82;;;1.80;;
56927;SDS011;60850;52.502;13.426;2023-08-31T08:52:25;5.00;;;1.88;;
56927;SDS011;60850;52.502;13.426;2023-08-31T08:54:53;3.33;;;1.50;;
56927;SDS011;60850;52.502;13.426;2023-08-31T08:57:20;3.40;;;1.80;;
56927;SDS011;60850;52.502;13.426;2023-08-31T08:59:47;3.30;;;1.50;;
56927;SDS011;60850;52.502;13.426;2023-08-31T09:02:14;5.75;;;1.73;;
56927;SDS011;60850;52.502;13.426;2023-08-31T09:04:41;4.28;;;1.35;;
56927;SDS011;60850;52.502;13.426;2023-08-31T09:07:07;4.55;;;1.60;;
56927;SDS011;60850;52.502;13.426;2023-08-31T09:09:43;3.13;;;1.50;;
56927;SDS011;60850;52.502;13.426;2023-08-31T09:12:15;4.72;;;1.85;;
56927;SDS011;60850;52.502;13.426;2023-08-31T09:14:42;3.45;;;1.50;;
56927;SDS011;60850;52.502;13.426;2023-08-31T09:17:09;5.03;;;1.83;;
56927;SDS011;60850;52.502;13.426;2023-08-31T09:19:36;4.60;;;1.80;;
56927;SDS011;60850;52.502;13.426;2023-08-31T09:22:03;5.43;;;1.85;;
56927;SDS011;60850;52.502;13.426;2023-08-31T09:24:40;4.72;;;1.30;;
56927;SDS011;60850;52.502;13.426;2023-08-31T09:27:09;4.57;;;1.60;;
56927;SDS011;60850;52.502;13.426;2023-08-31T09:29:37;1.25;;;0.93;;
56927;SDS011;60850;52.502;13.426;2023-08-31T09:32:05;3.28;;;1.40;;
56927;SDS011;60850;52.502;13.426;2023-08-31T09:34:33;4.80;;;1.58;;
56927;SDS011;60850;52.502;13.426;2023-08-31T09:37:03;7.78;;;1.50;;
56927;SDS011;60850;52.502;13.426;2023-08-31T09:39:35;3.55;;;1.38;;
56927;SDS011;60850;52.502;13.426;2023-08-31T09:42:02;7.28;;;1.55;;
56927;SDS011;60850;52.502;13.426;2023-08-31T09:44:31;2.55;;;1.20;;
56927;SDS011;60850;52.502;13.426;2023-08-31T09:46:58;4.22;;;1.88;;
56927;SDS011;60850;52.502;13.426;2023-08-31T09:49:26;2.05;;;1.30;;
56927;SDS011;60850;52.502;13.426;2023-08-31T09:51:54;5.22;;;1.40;;
56927;SDS011;60850;52.502;13.426;2023-08-31T09:54:22;4.28;;;1.52;;
56927;SDS011;60850;52.502;13.426;2023-08-31T09:56:51;3.65;;;2.30;;
56927;SDS011;60850;52.502;13.426;2023-08-31T09:59:22;3.03;;;1.70;;
56927;SDS011;60850;52.502;13.426;2023-08-31T10:01:50;3.15;;;1.30;;
56927;SDS011;60850;52.502;13.426;2023-08-31T10:04:17;2.58;;;1.20;;
56927;SDS011;60850;52.502;13.426;2023-08-31T10:06:44;2.22;;;1.00;;
56927;SDS011;60850;52.502;13.426;2023-08-31T10:09:11;3.17;;;1.00;;
56927;SDS011;60850;52.502;13.426;2023-08-31T10:11:40;2.08;;;1.15;;
56927;SDS011;60850;52.502;13.426;2023-08-31T10:14:08;2.95;;;1.00;;
56927;SDS011;60850;52.502;13.426;2023-08-31T10:16:38;2.58;;;1.33;;
56927;SDS011;60850;52.502;13.426;2023-08-31T10:19:07;3.60;;;1.25;;
56927;SDS011;60850;52.502;13.426;2023-08-31T10:21:34;3.17;;;1.33;;
56927;SDS011;60850;52.502;13.426;2023-08-31T10:24:01;5.30;;;1.33;;
56927;SDS011;60850;52.502;13.426;2023-08-31T10:26:30;1.67;;;1.05;;
56927;SDS011;60850;52.502;13.426;2023-08-31T10:28:58;2.42;;;1.40;;
56927;SDS011;60850;52.502;13.426;2023-08-31T10:31:28;3.55;;;1.00;;
56927;SDS011;60850;52.502;13.426;2023-08-31T10:33:56;4.18;;;1.05;;
56927;SDS011;60850;52.502;13.426;2023-08-31T10:36:36;1.30;;;0.95;;
56927;SDS011;60850;52.502;13.426;2023-08-31T10:39:05;10.43;;;1.27;;
56927;SDS011;60850;52.502;13.426;2023-08-31T10:41:37;8.43;;;1.42;;
56927;SDS011;60850;52.502;13.426;2023-08-31T10:44:17;3.15;;;1.40;;
56927;SDS011;60850;52.502;13.426;2023-08-31T10:46:44;4.57;;;1.45;;
56927;SDS011;60850;52.502;13.426;2023-08-31T10:49:13;3.70;;;1.70;;
56927;SDS011;60850;52.502;13.426;2023-08-31T10:51:42;5.25;;;1.80;;
56927;SDS011;60850;52.502;13.426;2023-08-31T10:54:10;3.55;;;1.40;;
56927;SDS011;60850;52.502;13.426;2023-08-31T10:56:51;4.07;;;1.60;;
56927;SDS011;60850;52.502;13.426;2023-08-31T10:59:20;2.67;;;1.40;;
56927;SDS011;60850;52.502;13.426;2023-08-31T11:01:53;2.30;;;1.52;;
56927;SDS011;60850;52.502;13.426;2023-08-31T11:04:22;5.53;;;1.70;;
56927;SDS011;60850;52.502;13.426;2023-08-31T11:09:42;4.90;;;2.58;;
56927;SDS011;60850;52.502;13.426;2023-08-31T11:12:10;5.40;;;1.88;;
56927;SDS011;60850;52.502;13.426;2023-08-31T11:14:38;3.72;;;1.90;;
56927;SDS011;60850;52.502;13.426;2023-08-31T11:17:05;3.90;;;1.92;;
56927;SDS011;60850;52.502;13.426;2023-08-31T11:19:33;4.57;;;2.25;;
56927;SDS011;60850;52.502;13.426;2023-08-31T11:22:00;5.63;;;2.30;;
56927;SDS011;60850;52.502;13.426;2023-08-31T11:24:30;4.10;;;1.65;;
56927;SDS011;60850;52.502;13.426;2023-08-31T11:26:57;3.13;;;1.63;;
56927;SDS011;60850;52.502;13.426;2023-08-31T11:29:24;3.75;;;2.00;;
56927;SDS011;60850;52.502;13.426;2023-08-31T11:31:51;5.43;;;1.80;;
56927;SDS011;60850;52.502;13.426;2023-08-31T11:34:19;3.78;;;1.42;;
56927;SDS011;60850;52.502;13.426;2023-08-31T11:36:46;8.55;;;1.63;;
56927;SDS011;60850;52.502;13.426;2023-08-31T11:39:14;3.83;;;1.80;;
56927;SDS011;60850;52.502;13.426;2023-08-31T11:41:43;3.55;;;1.48;;
56927;SDS011;60850;52.502;13.426;2023-08-31T11:44:11;4.88;;;1.90;;
56927;SDS011;60850;52.502;13.426;2023-08-31T11:46:41;8.00;;;3.17;;
56927;SDS011;60850;52.502;13.426;2023-08-31T11:49:13;4.60;;;2.45;;
56927;SDS011;60850;52.502;13.426;2023-08-31T11:51:41;5.43;;;2.33;;
56927;SDS011;60850;52.502;13.426;2023-08-31T11:54:09;4.50;;;1.70;;
56927;SDS011;60850;52.502;13.426;2023-08-31T11:56:39;5.53;;;3.35;;
56927;SDS011;60850;52.502;13.426;2023-08-31T11:59:12;3.80;;;2.88;;
56927;SDS011;60850;52.502;13.426;2023-08-31T12:01:41;6.38;;;1.83;;
56927;SDS011;60850;52.502;13.426;2023-08-31T12:04:10;4.13;;;2.20;;
56927;SDS011;60850;52.502;13.426;2023-08-31T12:06:37;6.00;;;2.10;;
56927;SDS011;60850;52.502;13.426;2023-08-31T12:09:05;7.03;;;3.00;;
56927;SDS011;60850;52.502;13.426;2023-08-31T12:11:32;8.88;;;2.55;;
56927;SDS011;60850;52.502;13.426;2023-08-31T12:13:59;8.07;;;2.97;;
56927;SDS011;60850;52.502;13.426;2023-08-31T12:16:33;7.15;;;2.72;;
56927;SDS011;60850;52.502;13.426;2023-08-31T12:19:01;8.68;;;3.03;;
56927;SDS011;60850;52.502;13.426;2023-08-31T12:21:29;4.88;;;2.65;;
56927;SDS011;60850;52.502;13.426;2023-08-31T12:23:56;3.28;;;2.15;;
56927;SDS011;60850;52.502;13.426;2023-08-31T12:26:23;4.18;;;2.00;;
56927;SDS011;60850;52.502;13.426;2023-08-31T12:28:50;4.60;;;1.98;;
56927;SDS011;60850;52.502;13.426;2023-08-31T12:31:17;5.90;;;2.60;;
56927;SDS011;60850;52.502;13.426;2023-08-31T12:33:46;4.63;;;2.30;;
56927;SDS011;60850;52.502;13.426;2023-08-31T12:36:13;6.38;;;2.20;;
56927;SDS011;60850;52.502;13.426;2023-08-31T12:38:40;7.80;;;2.50;;
56927;SDS011;60850;52.502;13.426;2023-08-31T12:41:07;3.25;;;2.35;;
56927;SDS011;60850;52.502;13.426;2023-08-31T12:43:34;5.00;;;2.60;;
56927;SDS011;60850;52.502;13.426;2023-08-31T12:46:01;5.40;;;2.47;;
56927;SDS011;60850;52.502;13.426;2023-08-31T12:48:31;5.25;;;2.45;;
56927;SDS011;60850;52.502;13.426;2023-08-31T12:50:59;4.35;;;2.40;;
56927;SDS011;60850;52.502;13.426;2023-08-31T12:53:26;4.65;;;2.65;;
56927;SDS011;60850;52.502;13.426;2023-08-31T12:55:53;3.75;;;2.60;;
56927;SDS011;60850;52.502;13.426;2023-08-31T12:58:20;10.80;;;3.30;;
56927;SDS011;60850;52.502;13.426;2023-08-31T13:00:48;5.05;;;2.72;;
56927;SDS011;60850;52.502;13.426;2023-08-31T13:03:16;5.20;;;2.97;;
56927;SDS011;60850;52.502;13.426;2023-08-31T13:05:42;2.63;;;1.88;;
56927;SDS011;60850;52.502;13.426;2023-08-31T13:08:11;4.05;;;2.75;;
56927;SDS011;60850;52.502;13.426;2023-08-31T13:10:37;3.05;;;1.67;;
56927;SDS011;60850;52.502;13.426;2023-08-31T13:13:04;3.33;;;2.00;;
56927;SDS011;60850;52.502;13.426;2023-08-31T13:15:31;3.42;;;1.58;;
56927;SDS011;60850;52.502;13.426;2023-08-31T13:17:58;3.03;;;1.60;;
56927;SDS011;60850;52.502;13.426;2023-08-31T13:20:25;3.33;;;2.10;;
56927;SDS011;60850;52.502;13.426;2023-08-31T13:22:53;3.20;;;1.90;;
56927;SDS011;60850;52.502;13.426;2023-08-31T13:25:21;2.58;;;1.80;;
56927;SDS011;60850;52.502;13.426;2023-08-31T13:27:48;1.48;;;1.15;;
56927;SDS011;60850;52.502;13.426;2023-08-31T13:30:15;4.57;;;2.00;;
56927;SDS011;60850;52.502;13.426;2023-08-31T13:32:42;3.17;;;1.27;;
56927;SDS011;60850;52.502;13.426;2023-08-31T13:35:09;2.17;;;1.75;;
56927;SDS011;60850;52.502;13.426;2023-08-31T13:37:36;3.50;;;1.50;;
56927;SDS011;60850;52.502;13.426;2023-08-31T13:40:03;3.20;;;1.70;;
56927;SDS011;60850;52.502;13.426;2023-08-31T13:42:35;2.88;;;1.80;;
56927;SDS011;60850;52.502;13.426;2023-08-31T13:45:04;3.00;;;1.83;;
56927;SDS011;60850;52.502;13.426;2023-08-31T13:47:33;3.72;;;1.70;;
56927;SDS011;60850;52.502;13.426;2023-08-31T13:50:00;2.97;;;1.40;;
56927;SDS011;60850;52.502;13.426;2023-08-31T13:52:29;2.45;;;1.30;;
56927;SDS011;60850;52.502;13.426;2023-08-31T13:54:56;1.92;;;1.17;;
56927;SDS011;60850;52.502;13.426;2023-08-31T13:57:23;2.05;;;1.40;;
56927;SDS011;60850;52.502;13.426;2023-08-31T13:59:51;3.55;;;1.70;;
56927;SDS011;60850;52.502;13.426;2023-08-31T14:02:18;3.63;;;1.52;;
56927;SDS011;60850;52.502;13.426;2023-08-31T14:04:45;2.95;;;1.42;;
56927;SDS011;60850;52.502;13.426;2023-08-31T14:07:12;2.75;;;1.70;;
56927;SDS011;60850;52.502;13.426;2023-08-31T14:09:39;3.15;;;1.25;;
56927;SDS011;60850;52.502;13.426;2023-08-31T14:12:06;1.80;;;1.42;;
56927;SDS011;60850;52.502;13.426;2023-08-31T14:14:32;3.97;;;1.88;;
56927;SDS011;60850;52.502;13.426;2023-08-31T14:17:02;5.40;;;1.48;;
56927;SDS011;60850;52.502;13.426;2023-08-31T14:19:29;4.80;;;1.60;;
56927;SDS011;60850;52.502;13.426;2023-08-31T14:21:57;3.33;;;1.75;;
56927;SDS011;60850;52.502;13.426;2023-08-31T14:24:24;2.58;;;1.30;;
56927;SDS011;60850;52.502;13.426;2023-08-31T14:26:51;3.55;;;1.75;;
56927;SDS011;60850;52.502;13.426;2023-08-31T14:29:18;2.35;;;1.52;;
56927;SDS011;60850;52.502;13.426;2023-08-31T14:31:45;2.22;;;1.60;;
56927;SDS011;60850;52.502;13.426;2023-08-31T14:34:13;3.38;;;1.58;;
56927;SDS011;60850;52.502;13.426;2023-08-31T14:36:40;3.20;;;2.17;;
56927;SDS011;60850;52.502;13.426;2023-08-31T14:39:07;1.75;;;1.00;;
56927;SDS011;60850;52.502;13.426;2023-08-31T14:41:33;2.78;;;1.60;;
56927;SDS011;60850;52.502;13.426;2023-08-31T14:44:00;4.88;;;1.73;;